Latest Weather Observations for Croker Island Airport

IDD60801

Issued at 9:21 am CST Thursday 23 January 2020 (issued every 10 minutes, with the page automatically refreshed every 10 minutes)

About weather observations | Map of weather stations | Latest weather observations for NT | Other Formats
Station Details ID: 014308 Name: CROKER ISLAND AIRPORT Lat: -11.16 Lon: 132.48 Height: 9.2 m
Data from the previous 72 hours. | See also: Recent months at Croker Island Airport
Date/Time
CST
Temp
°C
App
Temp
°C
Dew
Point
°C
Rel
Hum
%
Delta-T
°C
Wind Press
QNH
hPa
Press
MSL
hPa
Rain since
9am
mm
Dir  Spd
km/h
Gust
km/h
Spd
kts
Gust
kts
23/09:00am 29.6 32.3 25.6 79 2.8 WNW 22 32 12 17 1009.1 1009.0 20.4
23/08:30am 29.7 32.6 25.4 78 3.0 WNW 20 33 11 18 1009.1 1009.0 20.4
23/08:00am 29.4 33.1 25.8 81 2.6 NW 17 30 9 16 1009.2 1009.1 20.4
23/07:30am 28.8 32.2 25.2 81 2.5 NW 17 30 9 16 1009.1 1009.0 20.4
23/07:00am 28.3 31.5 25.5 85 2.0 NW 19 37 10 20 1008.6 1008.5 20.4
23/06:30am 28.9 30.7 24.9 79 2.8 WNW 24 35 13 19 1008.1 1008.0 19.8
23/06:00am 28.7 31.5 25.3 82 2.4 WNW 20 32 11 17 1007.8 1007.7 19.8
23/05:30am 28.8 31.1 25.0 80 2.7 WNW 22 35 12 19 1007.4 1007.3 19.8
23/05:00am 28.6 31.1 25.4 83 2.3 WNW 22 35 12 19 1007.3 1007.2 19.8
23/04:30am 28.3 31.1 25.3 84 2.1 NW 20 30 11 16 1007.5 1007.4 19.6
23/04:00am 27.6 30.5 25.4 88 1.5 NW 20 30 11 16 1007.6 1007.5 19.6
23/03:30am 27.8 30.6 25.8 89 1.4 WNW 22 37 12 20 1007.8 1007.7 16.4
23/03:00am 28.3 31.3 25.5 85 2.0 WNW 20 32 11 17 1007.5 1007.4 12.4
23/02:30am 28.5 31.5 25.3 83 2.3 WNW 19 28 10 15 1007.9 1007.8 12.4
23/02:00am 28.4 31.5 25.4 84 2.1 WNW 19 28 10 15 1008.3 1008.2 12.4
23/01:30am 28.2 31.8 25.0 83 2.2 NW 15 24 8 13 1008.7 1008.6 12.4
23/01:00am 28.3 31.3 25.3 84 2.1 WNW 19 30 10 16 1009.2 1009.1 12.2
23/12:30am 28.6 31.3 25.0 81 2.5 NW 20 37 11 20 1009.6 1009.5 12.0
23/12:00am 28.7 31.2 24.7 79 2.8 WNW 20 30 11 16 1009.9 1009.8 12.0
 
Date/Time
CST
Temp
°C
App
Temp
°C
Dew
Point
°C
Rel
Hum
%
Delta-T
°C
Wind Press
QNH
hPa
Press
MSL
hPa
Rain since
9am
mm
Dir  Spd
km/h
Gust
km/h
Spd
kts
Gust
kts
22/11:30pm 28.6 30.9 25.0 81 2.5 WNW 22 33 12 18 1010.1 1010.0 12.0
22/11:00pm 28.5 30.7 24.9 81 2.5 WNW 22 32 12 17 1009.6 1009.5 12.0
22/10:30pm 28.4 30.4 24.6 80 2.6 WNW 22 33 12 18 1009.9 1009.8 12.0
22/10:00pm 28.2 30.2 24.6 81 2.5 WNW 22 32 12 17 1010.1 1010.0 12.0
22/09:30pm 28.0 30.6 24.6 82 2.4 WNW 19 30 10 16 1009.8 1009.7 12.0
22/09:00pm 27.9 30.1 24.3 81 2.5 WNW 20 33 11 18 1009.1 1009.0 12.0
22/08:30pm 27.9 30.2 24.5 82 2.4 WNW 20 33 11 18 1008.8 1008.7 12.0
22/08:00pm 27.9 30.1 24.3 81 2.5 WNW 20 35 11 19 1008.6 1008.5 12.0
22/07:30pm 27.8 29.2 24.2 81 2.5 WNW 24 37 13 20 1008.5 1008.4 12.0
22/07:00pm 27.6 28.0 23.8 80 2.6 WNW 28 39 15 21 1008.6 1008.5 12.0
22/06:30pm 27.6 29.5 25.0 86 1.8 WNW 24 37 13 20 1008.8 1008.7 12.0
22/06:00pm 27.5 29.6 24.1 82 2.4 WNW 20 32 11 17 1008.3 1008.2 12.0
22/05:30pm 27.4 29.5 23.8 81 2.5 W 19 30 10 16 1007.6 1007.5 12.0
22/05:00pm 27.3 29.3 24.0 82 2.3 W 20 30 11 16 1007.8 1007.7 12.0
22/04:30pm 26.2 29.3 24.2 89 1.4 W 15 22 8 12 1008.2 1008.1 11.8
22/04:00pm 25.3 27.4 23.7 91 1.1 WSW 19 28 10 15 1008.1 1008.0 11.8
22/03:32pm 27.1 27.9 24.4 85 1.9 W 28 50 15 27 1009.0 1008.9 4.4
22/03:30pm 27.3 28.6 24.6 85 1.9 W 26 50 14 27 1008.8 1008.7 4.4
22/03:00pm 26.2 25.4 23.3 84 2.0 WSW 33 50 18 27 1009.0 1008.9 3.8
22/02:51pm 27.0 25.5 22.8 78 2.8 W 35 57 19 31 1009.2 1009.1 3.0
22/02:47pm 29.4 30.0 24.7 76 3.3 W 30 48 16 26 1009.3 1009.2 3.0
22/02:30pm 29.6 31.2 24.5 74 3.6 WNW 24 32 13 17 1009.1 1009.0 3.0
22/02:00pm 30.1 32.2 25.4 76 3.3 WNW 24 37 13 20 1009.5 1009.4 3.0
22/01:30pm 29.9 32.4 25.9 79 2.8 WNW 24 37 13 20 1009.9 1009.8 3.0
22/01:00pm 29.8 31.6 25.5 78 3.0 WNW 26 41 14 22 1010.3 1010.2 3.0
22/12:30pm 29.1 29.5 24.4 76 3.3 WNW 30 43 16 23 1010.5 1010.4 3.0
22/12:00pm 29.0 30.9 25.0 79 2.8 WNW 24 35 13 19 1010.9 1010.8 3.0
22/11:30am 28.5 30.8 24.5 79 2.8 NW 20 32 11 17 1010.9 1010.8 3.0
22/11:00am 27.5 28.8 24.1 82 2.3 WNW 24 35 13 19 1011.3 1011.2 3.0
22/10:30am 26.1 27.3 23.8 87 1.6 WNW 24 37 13 20 1011.9 1011.8 2.6
22/10:00am 25.9 27.1 23.9 89 1.4 WNW 24 41 13 22 1012.4 1012.3 1.8
22/09:30am 25.4 26.2 23.1 87 1.6 WNW 24 35 13 19 1012.4 1012.3 1.0
22/09:00am 26.9 29.0 24.7 88 1.5 WNW 22 37 12 20 1012.2 1012.1 70.8
22/08:30am 26.2 29.3 23.5 85 1.8 WNW 13 19 7 10 1011.9 1011.8 70.8
22/08:00am 25.9 28.3 23.0 84 2.0 W 15 22 8 12 1011.4 1011.3 70.8
22/07:30am 24.6 26.1 22.7 89 1.3 SSW 19 32 10 17 1011.0 1010.9 70.8
22/07:09am 25.9 26.5 24.7 93 0.8 W 30 54 16 29 1010.9 1010.8 70.2
22/07:03am 26.6 29.8 25.0 91 1.1 W 17 54 9 29 1010.7 1010.6 65.0
22/07:00am 26.7 31.5 25.1 91 1.1 W 9 15 5 8 1010.5 1010.4 63.6
22/06:30am 25.8 30.2 24.4 92 1.0 WSW 9 15 5 8 1010.4 1010.3 63.6
22/06:00am 25.6 29.5 24.2 92 1.0 WSW 11 17 6 9 1010.5 1010.4 63.6
22/05:30am 25.4 27.3 23.8 91 1.1 W 20 30 11 16 1010.5 1010.4 63.6
22/05:00am 24.4 21.0 22.5 89 1.3 W 44 65 24 35 1010.1 1010.0 62.8
22/04:41am 25.4 24.6 24.0 92 1.0 W 35 56 19 30 1010.4 1010.3 60.8
22/04:30am 25.3 25.4 23.9 92 1.0 WSW 30 39 16 21 1010.1 1010.0 60.0
22/04:03am 25.7 23.5 23.6 88 1.4 WNW 41 67 22 36 1009.9 1009.8 59.2
22/04:00am 25.8 24.0 22.9 84 2.0 WNW 37 67 20 36 1009.8 1009.7 58.6
22/03:57am 29.1 29.2 24.0 74 3.5 NW 30 65 16 35 1009.8 1009.7 57.6
22/03:30am 29.1 30.5 24.2 75 3.4 NW 24 39 13 21 1009.2 1009.1 57.6
22/03:00am 29.0 30.3 24.1 75 3.4 NW 24 39 13 21 1009.3 1009.2 57.6
22/02:30am 28.9 30.7 24.2 76 3.3 NW 22 37 12 20 1009.6 1009.5 57.6
22/02:00am 26.8 30.7 25.4 92 1.0 WNW 15 22 8 12 1009.8 1009.7 57.6
22/01:30am 26.3 29.1 24.9 92 1.0 WSW 19 32 10 17 1010.3 1010.2 57.2
22/01:00am 25.8 27.1 24.0 90 1.2 W 24 39 13 21 1010.7 1010.6 52.4
22/12:30am 29.7 31.6 25.0 76 3.3 WNW 24 41 13 22 1010.8 1010.7 43.0
22/12:00am 29.7 31.1 24.8 75 3.4 WNW 26 43 14 23 1011.0 1010.9 43.0
 
Date/Time
CST
Temp
°C
App
Temp
°C
Dew
Point
°C
Rel
Hum
%
Delta-T
°C
Wind Press
QNH
hPa
Press
MSL
hPa
Rain since
9am
mm
Dir  Spd
km/h
Gust
km/h
Spd
kts
Gust
kts
21/11:43pm 29.7 30.7 24.8 75 3.4 NW 28 46 15 25 1011.0 1010.9 43.0
21/11:30pm 29.6 31.6 25.1 77 3.2 NW 24 39 13 21 1010.9 1010.8 43.0
21/11:00pm 29.4 31.0 25.2 78 3.0 NW 26 39 14 21 1010.9 1010.8 43.0
21/10:30pm 28.8 32.0 25.6 83 2.3 NW 19 30 10 16 1010.4 1010.3 43.0
21/10:00pm 26.6 29.3 24.1 86 1.7 NNW 17 33 9 18 1010.5 1010.4 43.0
21/09:30pm 28.9 32.4 25.5 82 2.4 WNW 17 26 9 14 1010.4 1010.3 42.6
21/09:00pm 28.5 31.2 25.1 82 2.4 WNW 20 30 11 16 1010.2 1010.1 42.6
21/08:30pm 28.5 30.7 24.9 81 2.5 WNW 22 32 12 17 1010.0 1009.9 42.6
21/08:00pm 28.3 30.0 24.1 78 2.9 WNW 22 32 12 17 1009.6 1009.5 42.6
21/07:30pm 27.9 30.1 24.9 84 2.1 WNW 22 33 12 18 1009.1 1009.0 42.4
21/07:00pm 27.2 29.0 24.3 84 2.0 WNW 22 32 12 17 1009.2 1009.1 42.4
21/06:30pm 27.7 27.1 23.7 79 2.8 W 33 44 18 24 1008.8 1008.7 42.4
21/06:15pm 27.2 26.8 23.7 81 2.4 WNW 32 50 17 27 1009.0 1008.9 42.4
21/06:00pm 29.0 32.0 25.6 82 2.4 WNW 20 30 11 16 1008.8 1008.7 42.4
21/05:30pm 28.7 32.9 25.3 82 2.4 WNW 13 20 7 11 1008.5 1008.4 42.4
21/05:00pm 28.7 31.6 25.1 81 2.5 WNW 19 26 10 14 1008.6 1008.5 42.4
21/04:30pm 28.6 32.1 25.4 83 2.3 W 17 24 9 13 1008.7 1008.6 42.4
21/04:00pm 28.1 31.6 24.9 83 2.2 WNW 15 24 8 13 1009.1 1009.0 42.4
21/03:30pm 27.1 32.3 25.1 89 1.4 NW 7 13 4 7 1009.4 1009.3 42.4
21/03:00pm 26.3 30.5 24.7 91 1.1 W 11 19 6 10 1009.1 1009.0 42.4
21/02:30pm 25.9 29.2 24.5 92 1.0 WSW 15 22 8 12 1009.6 1009.5 42.4
21/02:00pm 25.6 29.1 24.2 92 1.0 WSW 13 20 7 11 1009.9 1009.8 42.0
21/01:30pm 25.7 29.0 24.5 93 0.8 W 15 24 8 13 1011.1 1011.0 40.2
21/01:00pm 25.5 27.9 24.3 93 0.8 WSW 19 26 10 14 1011.3 1011.2 37.8
21/12:30pm 25.3 27.7 24.3 94 0.7 WSW 19 28 10 15 1011.6 1011.5 37.2
21/12:00pm 25.1 28.2 24.1 94 0.7 SW 15 24 8 13 1012.3 1012.2 35.8
21/11:52am 25.3 25.9 24.1 93 0.8 SW 28 46 15 25 1012.4 1012.3 34.2
21/11:41am 26.0 28.2 24.2 90 1.2 SW 20 44 11 24 1012.4 1012.3 27.8
21/11:30am 26.5 31.3 25.1 92 1.0 SW 9 15 5 8 1011.9 1011.8 27.0
21/11:00am 26.7 31.1 25.7 94 0.7 WSW 13 24 7 13 1012.1 1012.0 27.0
21/10:30am 25.7 29.8 24.5 93 0.8 NW 11 24 6 13 1012.2 1012.1 21.8
21/10:00am 26.5 28.0 24.9 91 1.1 WNW 26 41 14 22 1012.0 1011.9 11.2
21/09:30am 25.3 28.5 23.7 91 1.1 W 13 20 7 11 1011.9 1011.8 10.4
21/09:12am 24.7 24.9 23.5 93 0.8 W 28 46 15 25 1012.5 1012.4 9.6
21/09:00am 26.0 27.7 24.6 92 1.0 WNW 24 46 13 25 1012.4 1012.3 66.4
21/08:58am 26.1 28.9 24.9 93 0.8 WNW 19 43 10 23 1012.4 1012.3 65.8
21/08:30am 25.3 29.9 24.1 93 0.8 WNW 7 11 4 6 1011.5 1011.4 63.4
21/08:00am 24.7 24.6 23.5 93 0.8 NW 30 50 16 27 1011.7 1011.6 61.0
21/07:44am 26.1 26.0 24.3 90 1.2 WNW 32 65 17 35 1011.4 1011.3 56.4
21/07:39am 26.9 29.4 24.4 86 1.7 NW 19 52 10 28 1011.4 1011.3 56.4
21/07:30am 27.5 31.9 25.1 87 1.7 NW 11 19 6 10 1011.0 1010.9 56.4
21/07:00am 27.0 30.7 24.6 87 1.7 NNW 13 20 7 11 1010.0 1009.9 56.4
21/06:30am 26.8 30.7 24.8 89 1.4 WNW 13 20 7 11 1009.8 1009.7 56.2
21/06:00am 26.9 30.1 24.9 89 1.4 WNW 17 26 9 14 1009.4 1009.3 55.8
21/05:30am 25.9 29.5 24.3 91 1.1 NW 13 20 7 11 1008.9 1008.8 55.4
21/05:12am 26.4 26.9 23.9 86 1.7 NW 28 48 15 26 1009.2 1009.1 53.0
21/05:00am 27.3 31.0 25.1 88 1.5 WNW 15 22 8 12 1009.1 1009.0 53.0
21/04:30am 26.2 31.3 25.0 93 0.8 NW 7 13 4 7 1009.1 1009.0 52.8
21/04:00am 25.2 29.9 24.0 93 0.8 NNW 6 9 3 5 1009.2 1009.1 52.6
21/03:30am 24.3 25.2 22.7 91 1.1 NW 22 43 12 23 1009.4 1009.3 50.6
21/03:20am 25.7 28.6 23.9 90 1.2 NW 15 41 8 22 1009.4 1009.3 39.2
21/03:00am 27.0 32.6 24.8 88 1.5 WNW 4 6 2 3 1009.1 1009.0 34.6
21/02:30am 26.4 31.9 24.6 90 1.2 WSW 4 6 2 3 1009.5 1009.4 34.6
21/02:00am 26.2 31.1 24.4 90 1.2 WNW 6 9 3 5 1009.6 1009.5 34.6
21/01:30am 26.2 30.3 24.6 91 1.1 WNW 11 19 6 10 1010.2 1010.1 34.2
21/01:18am 26.0 25.7 24.2 90 1.2 W 33 52 18 28 1010.5 1010.4 33.4
21/01:11am 27.5 29.6 24.1 82 2.3 NW 20 52 11 28 1010.2 1010.1 28.6
21/01:00am 28.8 33.3 25.2 81 2.5 NW 11 17 6 9 1009.9 1009.8 27.4
21/12:30am 28.8 33.3 25.2 81 2.5 NW 11 20 6 11 1010.2 1010.1 27.4
21/12:00am 28.9 32.7 25.3 81 2.5 NW 15 22 8 12 1010.6 1010.5 27.4
 
Date/Time
CST
Temp
°C
App
Temp
°C
Dew
Point
°C
Rel
Hum
%
Delta-T
°C
Wind Press
QNH
hPa
Press
MSL
hPa
Rain since
9am
mm
Dir  Spd
km/h
Gust
km/h
Spd
kts
Gust
kts
20/11:30pm 28.9 32.7 25.3 81 2.5 WNW 15 22 8 12 1010.7 1010.6 27.4
20/11:00pm 28.6 33.0 25.0 81 2.5 NW 11 20 6 11 1010.6 1010.5 27.4
20/10:30pm 28.6 33.0 25.0 81 2.5 NW 11 19 6 10 1010.6 1010.5 27.4
20/10:00pm 28.5 32.4 24.9 81 2.5 NW 13 19 7 10 1010.2 1010.1 27.4
20/09:30pm 28.5 31.8 24.5 79 2.8 WNW 15 22 8 12 1010.0 1009.9 27.4
20/09:00pm 28.3 32.6 24.9 82 2.4 WNW 11 17 6 9 1009.9 1009.8 27.4
20/08:30pm 28.3 31.8 24.9 82 2.4 WNW 15 22 8 12 1009.8 1009.7 27.4
20/08:00pm 28.2 31.8 25.0 83 2.2 WNW 15 20 8 11 1009.5 1009.4 27.4
20/07:30pm 28.1 31.9 24.7 82 2.4 W 13 19 7 10 1008.8 1008.7 27.4
20/07:00pm 27.8 31.0 24.4 82 2.4 W 15 22 8 12 1008.5 1008.4 27.4
20/06:30pm 27.6 31.1 24.2 82 2.4 WNW 13 17 7 9 1007.9 1007.8 27.4
20/06:00pm 27.2 29.9 24.1 83 2.1 WNW 17 24 9 13 1008.4 1008.3 27.4
20/05:30pm 27.3 30.7 24.6 85 1.9 WNW 15 20 8 11 1008.1 1008.0 27.4
20/05:00pm 27.6 30.3 24.8 85 2.0 WNW 19 26 10 14 1008.2 1008.1 27.2
20/04:30pm 27.6 30.5 25.4 88 1.5 WNW 20 30 11 16 1008.0 1007.9 27.2
20/04:00pm 27.0 29.2 24.3 85 1.9 WNW 20 30 11 16 1008.1 1008.0 27.0
20/03:30pm 27.0 29.0 24.6 87 1.7 WNW 22 32 12 17 1008.3 1008.2 26.6
20/03:00pm 26.4 29.6 25.0 92 1.0 WNW 17 24 9 13 1008.3 1008.2 26.6
20/02:30pm 25.7 27.8 24.7 94 0.7 WNW 22 35 12 19 1008.6 1008.5 26.2
20/02:06pm 25.5 24.9 24.3 93 0.8 WNW 35 56 19 30 1008.9 1008.8 17.8
20/02:00pm 25.4 27.4 24.0 92 1.0 NW 20 46 11 25 1008.9 1008.8 17.0
20/01:30pm 27.5 29.9 22.9 76 3.1 W 15 48 8 26 1008.8 1008.7 0.0
20/01:29pm 28.7 32.3 23.8 75 3.4 W 11 46 6 25 1008.9 1008.8 0.0
20/01:00pm 30.0 34.6 25.3 76 3.3 WSW 11 17 6 9 1009.1 1009.0 0.0
20/12:30pm 29.6 32.6 24.7 75 3.4 W 17 26 9 14 1009.1 1009.0 0.0
20/12:00pm 30.3 34.4 25.8 77 3.2 W 15 22 8 12 1009.6 1009.5 0.0
20/11:30am 30.3 33.2 24.4 70 4.1 WNW 17 24 9 13 1010.1 1010.0 0.0
20/11:00am 29.6 31.0 23.5 69 4.2 WNW 22 32 12 17 1010.3 1010.2 0.0
20/10:30am 29.8 32.3 24.7 74 3.6 WNW 20 30 11 16 1010.4 1010.3 0.0
20/10:00am 28.8 29.9 23.7 74 3.5 WNW 24 33 13 18 1010.1 1010.0 0.0
20/09:30am 29.0 32.1 25.4 81 2.5 WNW 19 26 10 14 1010.0 1009.9 0.0

Other formats

Comma delimited format used in spreadsheet applications
http://www.bom.gov.au/fwo/IDD60801/IDD60801.94108.axf

JavaScript Object Notation format (JSON) in row-major order
http://www.bom.gov.au/fwo/IDD60801/IDD60801.94108.json

Data quality

Most of these data are generated automatically and are frequently updated. Quality checks on data are not normally performed. It is possible for incorrect values to appear. Refer to information at About Latest Weather Observations and please check the disclaimer before using these data.